Terminal Aerodrome Forecast
Issued by NWS Tampa Bay Area, FL

Home | Current Version | Previous Version | Text Only | Print | Product List | Glossary Off
Versions: 1 2 3 4 5 6 7 8 9 10 11 12 13 14 15 16 17 18

210
FTUS42 KTBW 241127
TAFSRQ
TAF
KSRQ 241127Z 2412/2512 02006KT P6SM BKN009
     FM241500 03007KT P6SM SCT020
     FM241900 30009KT P6SM SCT040
     FM250500 VRB03KT P6SM SCT005 BKN035=

USA.gov is the U.S. government's official web portal to all federal, state and local government web resources and services.